Time;durP1;ratioP1;P1;durP2;ratioP2;P2;SDS_P1;SDS_P2;PMS_P1;PMS_P2;Temp;Humidity;BMP_temperature;BMP_pressure;BME280_temperature;BME280_humidity;BME280_pressure;Samples;Min_cycle;Max_cycle;Signal;HPM_P1;HPM_P2
2022/11/26 00:00:56;;;;;;;6.25;3.97;;;;;;;;;;5079350;28;20021;-80
2022/11/26 00:03:22;;;;;;;8.25;4.18;;;;;;;;;;5069624;28;20023;-79
2022/11/26 00:05:51;;;;;;;5.93;3.90;;;;;;;;;;5060109;28;20104;-81
2022/11/26 00:08:17;;;;;;;9.90;4.15;;;;;;;;;;5041742;28;20032;-81
2022/11/26 00:10:43;;;;;;;7.35;3.90;;;;;;;;;;5051204;28;20089;-80
2022/11/26 00:13:15;;;;;;;11.10;4.30;;;;;;;;;;5070237;28;20122;-78
2022/11/26 00:15:41;;;;;;;8.80;5.00;;;;;;;;;;5076708;28;20028;-76
2022/11/26 00:18:07;;;;;;;7.85;4.20;;;;;;;;;;5050147;28;20047;-79
2022/11/26 00:20:33;;;;;;;9.50;3.85;;;;;;;;;;5063433;28;20381;-80
2022/11/26 00:23:03;;;;;;;6.68;3.75;;;;;;;;;;5061882;28;20035;-80
2022/11/26 00:25:38;;;;;;;12.13;4.35;;;;;;;;;;5061043;28;20024;-81
2022/11/26 00:28:14;;;;;;;8.52;4.72;;;;;;;;;;5060534;28;20033;-81
2022/11/26 00:30:40;;;;;;;9.82;4.35;;;;;;;;;;5074066;28;20400;-80
2022/11/26 00:33:06;;;;;;;7.47;3.90;;;;;;;;;;5072626;28;20112;-78
2022/11/26 00:35:33;;;;;;;11.13;3.63;;;;;;;;;;5063523;28;20040;-79
2022/11/26 00:37:59;;;;;;;12.45;3.97;;;;;;;;;;5062330;28;20036;-78
2022/11/26 00:40:26;;;;;;;7.65;3.80;;;;;;;;;;5044603;28;20036;-79
2022/11/26 00:42:53;;;;;;;7.28;3.88;;;;;;;;;;5065514;28;20041;-79
2022/11/26 00:45:21;;;;;;;12.02;3.83;;;;;;;;;;5066640;28;20056;-79
2022/11/26 00:47:47;;;;;;;7.30;3.30;;;;;;;;;;5063638;28;20025;-80
2022/11/26 00:50:14;;;;;;;9.70;4.63;;;;;;;;;;5076221;28;20009;-78
2022/11/26 00:52:40;;;;;;;7.03;3.35;;;;;;;;;;5079522;28;20059;-80
2022/11/26 00:55:09;;;;;;;6.75;3.10;;;;;;;;;;5061206;28;20091;-79
2022/11/26 00:57:35;;;;;;;6.60;3.45;;;;;;;;;;5067748;28;20049;-80
2022/11/26 01:00:02;;;;;;;7.68;4.07;;;;;;;;;;5067998;28;20035;-79
2022/11/26 01:02:28;;;;;;;9.32;3.67;;;;;;;;;;5080051;28;20108;-79
2022/11/26 01:04:54;;;;;;;7.10;3.50;;;;;;;;;;5062401;28;20470;-79
2022/11/26 01:07:20;;;;;;;9.18;3.75;;;;;;;;;;5061024;28;20060;-80
2022/11/26 01:09:47;;;;;;;8.43;3.03;;;;;;;;;;5062350;28;20434;-80
2022/11/26 01:12:13;;;;;;;6.38;3.25;;;;;;;;;;5043423;28;20096;-80
2022/11/26 01:14:39;;;;;;;12.13;3.97;;;;;;;;;;5062752;28;20414;-79
2022/11/26 01:17:09;;;;;;;7.00;3.80;;;;;;;;;;5062961;28;20135;-79
2022/11/26 01:19:35;;;;;;;5.47;3.28;;;;;;;;;;5061990;28;20186;-80
2022/11/26 01:22:01;;;;;;;7.35;3.35;;;;;;;;;;5061802;28;20017;-80
2022/11/26 01:24:27;;;;;;;5.93;3.38;;;;;;;;;;5063189;28;20073;-81
2022/11/26 01:26:53;;;;;;;10.13;3.47;;;;;;;;;;5062645;28;20079;-78
2022/11/26 01:29:20;;;;;;;8.68;3.72;;;;;;;;;;5065258;28;20029;-79
2022/11/26 01:31:46;;;;;;;8.20;3.65;;;;;;;;;;5083008;28;20528;-79
2022/11/26 01:34:12;;;;;;;8.23;3.85;;;;;;;;;;5067031;28;20394;-78
2022/11/26 01:36:39;;;;;;;7.50;3.38;;;;;;;;;;5063257;28;20083;-80
2022/11/26 01:39:35;;;;;;;9.80;3.35;;;;;;;;;;5067609;28;20036;-79
2022/11/26 01:42:10;;;;;;;8.55;3.70;;;;;;;;;;5035216;28;20071;-79
2022/11/26 01:44:36;;;;;;;8.05;3.67;;;;;;;;;;5043445;28;20029;-79
2022/11/26 01:47:17;;;;;;;4.97;2.90;;;;;;;;;;5062047;28;20029;-79
2022/11/26 01:50:03;;;;;;;5.97;3.55;;;;;;;;;;5061060;28;20017;-80
2022/11/26 01:52:29;;;;;;;4.50;2.53;;;;;;;;;;5060263;28;20028;-80
2022/11/26 01:54:55;;;;;;;8.30;3.15;;;;;;;;;;5060201;28;20025;-80
2022/11/26 01:57:23;;;;;;;8.25;3.10;;;;;;;;;;5058902;28;20036;-79
2022/11/26 01:59:52;;;;;;;9.02;3.17;;;;;;;;;;5064189;28;20028;-79
2022/11/26 02:02:19;;;;;;;6.88;3.75;;;;;;;;;;5057206;28;20020;-79
2022/11/26 02:04:58;;;;;;;6.97;3.15;;;;;;;;;;5057725;28;20064;-79
2022/11/26 02:07:24;;;;;;;7.00;2.63;;;;;;;;;;5038627;28;20058;-79
2022/11/26 02:09:50;;;;;;;7.15;3.10;;;;;;;;;;5039573;28;20040;-80
2022/11/26 02:12:17;;;;;;;5.45;2.85;;;;;;;;;;5057918;28;20486;-78
2022/11/26 02:14:43;;;;;;;5.60;2.58;;;;;;;;;;5057262;28;20401;-79
2022/11/26 02:17:28;;;;;;;22.90;4.75;;;;;;;;;;5038241;28;20052;-79
2022/11/26 02:20:16;;;;;;;6.95;3.10;;;;;;;;;;5057060;28;20497;-78
2022/11/26 02:22:42;;;;;;;6.68;2.90;;;;;;;;;;5039329;28;20024;-81
2022/11/26 02:25:47;;;;;;;5.93;2.72;;;;;;;;;;5057049;28;20024;-81
2022/11/26 02:28:20;;;;;;;6.82;2.33;;;;;;;;;;5014621;28;20030;-78
2022/11/26 02:30:48;;;;;;;6.55;2.72;;;;;;;;;;5015411;28;20550;-79
2022/11/26 02:33:26;;;;;;;4.93;2.20;;;;;;;;;;5020996;28;20044;-79
2022/11/26 02:35:57;;;;;;;4.75;1.75;;;;;;;;;;5057391;28;20082;-79
2022/11/26 02:38:25;;;;;;;9.32;2.75;;;;;;;;;;5056111;28;20528;-79
2022/11/26 02:40:51;;;;;;;5.18;2.40;;;;;;;;;;5056463;28;20025;-79
2022/11/26 02:43:18;;;;;;;5.30;2.78;;;;;;;;;;5056564;28;20084;-79
2022/11/26 02:45:47;;;;;;;5.03;2.08;;;;;;;;;;5057256;28;20496;-79
2022/11/26 02:48:19;;;;;;;5.60;2.10;;;;;;;;;;5056136;28;20033;-80
2022/11/26 02:50:47;;;;;;;3.10;2.08;;;;;;;;;;5057523;28;20017;-80
2022/11/26 02:53:14;;;;;;;4.10;2.33;;;;;;;;;;5056063;28;20025;-80
2022/11/26 02:55:51;;;;;;;6.15;2.85;;;;;;;;;;5056653;28;20029;-80
2022/11/26 02:58:24;;;;;;;6.85;2.72;;;;;;;;;;5056736;28;21022;-80
2022/11/26 03:00:50;;;;;;;4.15;2.30;;;;;;;;;;5071640;28;20021;-79
2022/11/26 03:03:22;;;;;;;4.78;1.90;;;;;;;;;;5041398;28;20029;-80
2022/11/26 03:05:50;;;;;;;6.00;2.67;;;;;;;;;;5057512;28;20404;-78
2022/11/26 03:08:16;;;;;;;6.55;2.65;;;;;;;;;;5055576;28;20240;-80
2022/11/26 03:10:42;;;;;;;5.55;2.55;;;;;;;;;;5062332;28;20029;-78
2022/11/26 03:13:08;;;;;;;4.07;2.35;;;;;;;;;;5076887;28;20421;-79
2022/11/26 03:15:34;;;;;;;7.70;3.13;;;;;;;;;;5076821;28;20024;-79
2022/11/26 03:18:00;;;;;;;8.32;2.75;;;;;;;;;;5057772;28;20020;-79
2022/11/26 03:20:26;;;;;;;5.80;2.45;;;;;;;;;;5076826;28;20029;-81
2022/11/26 03:22:55;;;;;;;5.10;2.83;;;;;;;;;;5076640;28;20095;-81
2022/11/26 03:25:21;;;;;;;4.97;2.20;;;;;;;;;;5076427;28;20025;-81
2022/11/26 03:27:47;;;;;;;5.32;2.35;;;;;;;;;;5076648;28;20605;-80
2022/11/26 03:30:13;;;;;;;5.93;2.40;;;;;;;;;;5076866;28;20119;-79
2022/11/26 03:32:39;;;;;;;4.70;2.53;;;;;;;;;;5063382;28;20029;-79
2022/11/26 03:35:05;;;;;;;5.60;2.60;;;;;;;;;;5058690;28;20021;-79
2022/11/26 03:37:31;;;;;;;5.60;2.80;;;;;;;;;;5065393;28;20025;-79
2022/11/26 03:39:57;;;;;;;8.35;2.55;;;;;;;;;;5062099;28;20048;-80
2022/11/26 03:42:23;;;;;;;4.60;2.40;;;;;;;;;;5060911;28;20021;-79
2022/11/26 03:44:49;;;;;;;8.73;2.60;;;;;;;;;;5062718;28;20025;-80
2022/11/26 03:47:15;;;;;;;4.95;2.30;;;;;;;;;;5060393;28;20119;-80
2022/11/26 03:49:41;;;;;;;6.32;2.72;;;;;;;;;;5061107;28;20481;-79
2022/11/26 03:52:08;;;;;;;4.13;2.80;;;;;;;;;;5074301;28;20017;-77
2022/11/26 03:54:34;;;;;;;8.30;2.92;;;;;;;;;;5063933;28;20064;-80
2022/11/26 03:57:00;;;;;;;9.07;3.00;;;;;;;;;;5057875;28;20037;-80
2022/11/26 03:59:26;;;;;;;4.28;2.50;;;;;;;;;;5063878;28;20055;-80
2022/11/26 04:01:52;;;;;;;4.72;2.58;;;;;;;;;;5083419;28;20021;-78
2022/11/26 04:04:18;;;;;;;6.57;2.88;;;;;;;;;;5071353;28;20036;-79
2022/11/26 04:06:44;;;;;;;8.88;3.53;;;;;;;;;;5075335;28;20017;-80
2022/11/26 04:09:10;;;;;;;6.18;3.10;;;;;;;;;;5085795;28;20031;-80
2022/11/26 04:11:36;;;;;;;7.38;3.08;;;;;;;;;;5101033;28;20670;-81
2022/11/26 04:14:02;;;;;;;9.48;3.60;;;;;;;;;;5099297;28;20021;-78
2022/11/26 04:16:28;;;;;;;5.95;3.00;;;;;;;;;;5095966;28;20025;-79
2022/11/26 04:18:54;;;;;;;6.05;2.83;;;;;;;;;;5079522;28;20029;-79
2022/11/26 04:21:20;;;;;;;7.78;3.42;;;;;;;;;;5078858;28;20060;-79
2022/11/26 04:23:46;;;;;;;9.05;3.33;;;;;;;;;;5078361;28;20039;-79
2022/11/26 04:26:17;;;;;;;8.00;3.20;;;;;;;;;;5077754;28;20029;-81
2022/11/26 04:28:49;;;;;;;8.73;3.65;;;;;;;;;;5079653;28;20080;-80
2022/11/26 04:31:24;;;;;;;5.10;3.00;;;;;;;;;;5076094;28;20047;-81
2022/11/26 04:33:50;;;;;;;9.00;3.38;;;;;;;;;;5059399;28;20037;-79
2022/11/26 04:36:16;;;;;;;6.88;3.00;;;;;;;;;;5077941;28;20031;-79
2022/11/26 04:38:44;;;;;;;6.15;3.03;;;;;;;;;;5080301;28;20025;-81
2022/11/26 04:41:10;;;;;;;8.90;3.40;;;;;;;;;;5079798;28;20028;-81
2022/11/26 04:43:36;;;;;;;7.38;3.15;;;;;;;;;;5060891;28;20043;-81
2022/11/26 04:46:02;;;;;;;7.13;3.63;;;;;;;;;;5072938;28;20025;-78
2022/11/26 04:48:29;;;;;;;8.00;3.58;;;;;;;;;;5058303;28;20043;-78
2022/11/26 04:50:57;;;;;;;8.80;3.65;;;;;;;;;;5059574;28;20025;-79
2022/11/26 04:53:26;;;;;;;10.93;3.05;;;;;;;;;;5060012;28;20032;-79
2022/11/26 04:55:52;;;;;;;6.88;3.20;;;;;;;;;;5059211;28;20041;-78
2022/11/26 04:58:22;;;;;;;7.32;2.78;;;;;;;;;;5042178;28;20036;-78
2022/11/26 05:00:58;;;;;;;6.88;4.28;;;;;;;;;;5051459;28;20029;-79
2022/11/26 05:03:28;;;;;;;3.63;2.60;;;;;;;;;;5078745;28;20476;-79
2022/11/26 05:05:54;;;;;;;7.35;3.92;;;;;;;;;;5061300;28;20024;-77
2022/11/26 05:08:20;;;;;;;10.18;3.53;;;;;;;;;;5078776;28;20016;-80
2022/11/26 05:13:44;;;;;;;4.65;2.85;;;;;;;;;;5072271;28;20044;-78
2022/11/26 05:16:12;;;;;;;12.90;3.75;;;;;;;;;;5077408;28;20465;-79
2022/11/26 05:18:43;;;;;;;10.43;3.70;;;;;;;;;;5059912;28;20028;-78
2022/11/26 05:21:14;;;;;;;8.48;3.55;;;;;;;;;;5078702;28;20416;-77
2022/11/26 05:23:43;;;;;;;10.87;4.37;;;;;;;;;;5060166;28;20363;-78
2022/11/26 05:26:14;;;;;;;6.68;3.47;;;;;;;;;;5066801;28;20041;-77
2022/11/26 05:28:40;;;;;;;9.18;4.18;;;;;;;;;;5053002;28;20029;-79
2022/11/26 05:31:06;;;;;;;10.68;4.97;;;;;;;;;;5079031;28;20075;-79
2022/11/26 05:33:38;;;;;;;13.07;6.57;;;;;;;;;;5066808;28;20032;-78
2022/11/26 05:36:04;;;;;;;17.30;8.77;;;;;;;;;;5066866;28;20033;-77
2022/11/26 05:38:38;;;;;;;12.32;5.30;;;;;;;;;;5056503;28;20506;-79
2022/11/26 05:41:13;;;;;;;6.60;3.80;;;;;;;;;;5096467;28;20035;-79
2022/11/26 05:43:40;;;;;;;7.60;3.80;;;;;;;;;;5091087;28;20072;-78
2022/11/26 05:46:10;;;;;;;5.85;3.33;;;;;;;;;;5076209;28;20036;-79
2022/11/26 05:48:39;;;;;;;8.93;3.45;;;;;;;;;;5070245;28;20028;-78
2022/11/26 05:51:05;;;;;;;6.95;3.90;;;;;;;;;;5070371;28;20025;-78
2022/11/26 05:53:34;;;;;;;9.82;4.30;;;;;;;;;;5071272;28;20025;-83
2022/11/26 05:56:01;;;;;;;14.45;5.43;;;;;;;;;;5073065;28;20080;-81
2022/11/26 05:58:27;;;;;;;13.35;4.60;;;;;;;;;;5073733;28;20031;-81
2022/11/26 06:00:54;;;;;;;6.95;3.70;;;;;;;;;;5084947;28;20031;-80
2022/11/26 06:03:20;;;;;;;5.47;3.58;;;;;;;;;;5071017;28;20092;-80
2022/11/26 06:05:46;;;;;;;7.70;3.50;;;;;;;;;;5090392;28;20028;-80
2022/11/26 06:08:17;;;;;;;16.45;4.57;;;;;;;;;;5088547;28;20021;-78
2022/11/26 06:10:44;;;;;;;6.22;3.70;;;;;;;;;;5089966;28;20369;-79
2022/11/26 06:13:12;;;;;;;10.65;4.30;;;;;;;;;;5072911;28;20092;-79
2022/11/26 06:15:42;;;;;;;8.68;4.60;;;;;;;;;;5072603;28;20032;-77
2022/11/26 06:18:09;;;;;;;10.15;4.43;;;;;;;;;;5072187;28;20111;-78
2022/11/26 06:20:36;;;;;;;9.35;4.53;;;;;;;;;;5087609;28;20076;-78
2022/11/26 06:23:05;;;;;;;8.15;4.35;;;;;;;;;;5088950;28;20078;-79
2022/11/26 06:25:33;;;;;;;8.57;4.05;;;;;;;;;;5058108;28;20025;-79
2022/11/26 06:28:00;;;;;;;12.30;4.57;;;;;;;;;;5050705;28;20100;-79
2022/11/26 06:30:29;;;;;;;9.93;4.45;;;;;;;;;;5070641;28;20436;-80
2022/11/26 06:33:00;;;;;;;9.27;4.80;;;;;;;;;;5072409;28;20031;-81
2022/11/26 06:35:27;;;;;;;12.20;4.93;;;;;;;;;;5064116;28;20104;-80
2022/11/26 06:37:53;;;;;;;10.05;4.45;;;;;;;;;;5077920;28;20043;-78
2022/11/26 06:40:22;;;;;;;7.07;3.63;;;;;;;;;;5078787;28;20021;-80
2022/11/26 06:42:49;;;;;;;8.75;3.88;;;;;;;;;;5083133;28;20075;-79
2022/11/26 06:45:18;;;;;;;12.45;4.20;;;;;;;;;;5059464;28;20048;-80
2022/11/26 06:47:51;;;;;;;9.27;4.00;;;;;;;;;;5058654;28;20063;-80
2022/11/26 06:50:20;;;;;;;9.77;3.85;;;;;;;;;;5093918;28;20032;-78
2022/11/26 06:52:53;;;;;;;10.52;3.58;;;;;;;;;;5093071;28;20024;-80
2022/11/26 06:55:23;;;;;;;11.27;4.35;;;;;;;;;;5072676;28;20025;-80
2022/11/26 06:57:54;;;;;;;10.35;4.00;;;;;;;;;;5055497;28;20474;-78
2022/11/26 07:00:29;;;;;;;11.75;3.90;;;;;;;;;;5055965;28;20028;-80
2022/11/26 07:02:56;;;;;;;7.25;3.58;;;;;;;;;;5039438;28;20555;-78
2022/11/26 07:05:22;;;;;;;10.93;3.47;;;;;;;;;;5057060;28;20029;-79
2022/11/26 07:07:49;;;;;;;6.50;3.22;;;;;;;;;;5076216;28;20033;-77
2022/11/26 07:10:20;;;;;;;8.23;3.85;;;;;;;;;;5080128;28;20028;-79
2022/11/26 07:12:49;;;;;;;8.85;2.83;;;;;;;;;;5081463;28;20050;-80
2022/11/26 07:15:15;;;;;;;5.15;3.13;;;;;;;;;;5081196;28;20025;-81
2022/11/26 07:17:44;;;;;;;8.30;3.15;;;;;;;;;;5079932;28;20035;-80
2022/11/26 07:20:13;;;;;;;7.32;2.60;;;;;;;;;;5087032;28;20025;-80
2022/11/26 07:22:44;;;;;;;5.43;2.45;;;;;;;;;;5066927;28;20393;-80
2022/11/26 07:25:11;;;;;;;6.25;2.13;;;;;;;;;;5096262;28;20021;-77
2022/11/26 07:27:37;;;;;;;6.78;3.08;;;;;;;;;;5082063;28;20096;-78
2022/11/26 07:30:04;;;;;;;5.45;2.90;;;;;;;;;;5096072;28;20081;-80
2022/11/26 07:32:38;;;;;;;3.92;2.22;;;;;;;;;;5086147;28;20033;-78
2022/11/26 07:35:08;;;;;;;4.57;2.47;;;;;;;;;;5080864;28;20020;-79
2022/11/26 07:37:34;;;;;;;4.95;2.35;;;;;;;;;;5050774;28;20040;-80
2022/11/26 07:40:00;;;;;;;3.45;2.13;;;;;;;;;;5060757;28;20077;-79
2022/11/26 07:42:35;;;;;;;5.07;2.38;;;;;;;;;;5060537;28;20033;-80
2022/11/26 07:45:02;;;;;;;2.78;1.90;;;;;;;;;;5060522;28;20049;-79
2022/11/26 07:47:31;;;;;;;4.93;2.25;;;;;;;;;;5060176;28;20091;-79
2022/11/26 07:50:00;;;;;;;4.05;1.90;;;;;;;;;;5042444;28;20025;-80
2022/11/26 07:52:26;;;;;;;4.00;1.85;;;;;;;;;;5042770;28;20522;-79
2022/11/26 07:54:52;;;;;;;11.20;2.53;;;;;;;;;;5059567;28;20024;-79
2022/11/26 07:57:21;;;;;;;4.93;2.00;;;;;;;;;;5061054;28;20029;-79
2022/11/26 07:59:50;;;;;;;2.47;1.50;;;;;;;;;;5061126;28;20038;-78
2022/11/26 08:02:17;;;;;;;3.70;1.65;;;;;;;;;;5079318;28;20441;-80
2022/11/26 08:04:45;;;;;;;11.88;1.63;;;;;;;;;;5062250;28;20020;-80
2022/11/26 08:07:14;;;;;;;3.95;1.40;;;;;;;;;;5079445;28;20492;-79
2022/11/26 08:09:40;;;;;;;2.45;1.20;;;;;;;;;;5060958;28;20024;-80
2022/11/26 08:12:06;;;;;;;2.95;1.20;;;;;;;;;;5079060;28;20143;-80
2022/11/26 08:14:33;;;;;;;5.07;1.77;;;;;;;;;;5079293;28;20100;-80
2022/11/26 08:16:59;;;;;;;5.15;1.25;;;;;;;;;;5078702;28;20031;-80
2022/11/26 08:19:25;;;;;;;4.72;1.08;;;;;;;;;;5047864;28;20096;-80
2022/11/26 08:21:54;;;;;;;2.70;1.45;;;;;;;;;;5059633;28;20031;-78
2022/11/26 08:24:22;;;;;;;5.32;1.33;;;;;;;;;;5060205;28;20025;-79
2022/11/26 08:26:49;;;;;;;3.78;1.17;;;;;;;;;;5059682;28;20465;-81
2022/11/26 08:29:15;;;;;;;3.67;1.50;;;;;;;;;;5070219;28;20028;-79
2022/11/26 08:31:42;;;;;;;4.15;1.60;;;;;;;;;;5079435;28;20028;-79
2022/11/26 08:34:11;;;;;;;2.80;1.35;;;;;;;;;;5079378;28;20031;-79
2022/11/26 08:36:40;;;;;;;5.57;1.83;;;;;;;;;;5059895;28;20041;-79
2022/11/26 08:39:09;;;;;;;4.07;1.52;;;;;;;;;;5072436;28;20029;-80
2022/11/26 08:41:35;;;;;;;2.05;1.35;;;;;;;;;;5059916;28;20051;-79
2022/11/26 08:44:01;;;;;;;3.03;1.80;;;;;;;;;;5075269;28;20044;-79
2022/11/26 08:46:29;;;;;;;4.07;2.08;;;;;;;;;;5070516;28;20032;-79
2022/11/26 08:48:59;;;;;;;3.58;1.45;;;;;;;;;;5082301;28;20299;-80
2022/11/26 08:51:25;;;;;;;4.93;2.33;;;;;;;;;;5060094;28;20492;-80
2022/11/26 08:53:52;;;;;;;6.47;2.30;;;;;;;;;;5041323;28;20029;-80
2022/11/26 08:56:18;;;;;;;5.80;2.17;;;;;;;;;;5059062;28;20079;-80
2022/11/26 08:58:45;;;;;;;5.47;2.25;;;;;;;;;;5070176;22;20481;-82
2022/11/26 09:01:13;;;;;;;6.45;2.10;;;;;;;;;;5062503;28;20079;-82
2022/11/26 09:03:39;;;;;;;7.03;2.38;;;;;;;;;;5064776;28;20028;-80
2022/11/26 09:06:06;;;;;;;6.35;2.28;;;;;;;;;;5064699;28;20057;-81
2022/11/26 09:08:43;;;;;;;4.88;1.88;;;;;;;;;;5061665;28;20025;-81
2022/11/26 09:11:09;;;;;;;3.17;1.73;;;;;;;;;;5057434;28;20026;-81
2022/11/26 09:13:35;;;;;;;4.13;2.10;;;;;;;;;;5035246;28;20052;-79
2022/11/26 09:16:01;;;;;;;10.80;2.38;;;;;;;;;;5035557;28;20052;-79
2022/11/26 09:18:27;;;;;;;5.18;1.92;;;;;;;;;;5053871;28;20014;-80
2022/11/26 09:20:53;;;;;;;5.10;2.03;;;;;;;;;;5035733;28;20044;-80
2022/11/26 09:23:19;;;;;;;6.30;2.03;;;;;;;;;;5044099;28;20049;-78
2022/11/26 09:25:45;;;;;;;4.53;2.10;;;;;;;;;;5040352;28;20036;-81
2022/11/26 09:28:11;;;;;;;6.10;2.03;;;;;;;;;;5046750;28;20025;-84
2022/11/26 09:30:37;;;;;;;4.03;2.00;;;;;;;;;;5059182;28;20017;-81
2022/11/26 09:33:03;;;;;;;8.80;2.55;;;;;;;;;;5046728;28;20462;-82
2022/11/26 09:35:29;;;;;;;10.00;2.45;;;;;;;;;;5039814;28;20084;-81
2022/11/26 09:37:55;;;;;;;3.92;2.50;;;;;;;;;;5041462;28;20022;-82
2022/11/26 09:40:24;;;;;;;5.15;2.35;;;;;;;;;;5022438;28;20025;-82
2022/11/26 09:43:13;;;;;;;3.80;2.35;;;;;;;;;;5040100;28;20048;-80
2022/11/26 09:45:42;;;;;;;9.38;2.70;;;;;;;;;;5020445;28;20037;-80
2022/11/26 09:48:20;;;;;;;7.30;2.45;;;;;;;;;;5022472;28;20041;-81
2022/11/26 09:50:47;;;;;;;7.65;2.42;;;;;;;;;;5021900;28;20081;-81
2022/11/26 09:53:13;;;;;;;6.45;2.65;;;;;;;;;;5040869;28;20032;-84
2022/11/26 09:55:42;;;;;;;7.28;2.50;;;;;;;;;;5022430;28;20026;-82
2022/11/26 09:58:18;;;;;;;6.05;2.58;;;;;;;;;;5020912;28;20421;-82
2022/11/26 10:00:46;;;;;;;5.93;2.15;;;;;;;;;;5055047;28;20109;-82
2022/11/26 10:03:14;;;;;;;8.75;2.65;;;;;;;;;;5058616;28;20358;-80
2022/11/26 10:05:59;;;;;;;9.48;3.28;;;;;;;;;;5063878;28;20041;-83
2022/11/26 10:08:34;;;;;;;7.05;3.05;;;;;;;;;;5065463;28;20063;-80
2022/11/26 10:11:06;;;;;;;4.90;2.10;;;;;;;;;;5067865;28;20025;-84
2022/11/26 10:13:40;;;;;;;5.70;2.70;;;;;;;;;;5038359;28;20025;-82
2022/11/26 10:16:18;;;;;;;12.88;3.78;;;;;;;;;;5045281;28;20033;-81
2022/11/26 10:18:50;;;;;;;11.88;2.58;;;;;;;;;;5024840;28;20037;-82
2022/11/26 10:21:21;;;;;;;11.43;3.10;;;;;;;;;;5042142;28;20061;-81
2022/11/26 10:23:56;;;;;;;7.40;2.53;;;;;;;;;;5039894;28;20018;-80
2022/11/26 10:26:29;;;;;;;6.82;2.72;;;;;;;;;;5020056;28;20060;-82
2022/11/26 10:29:15;;;;;;;9.13;2.60;;;;;;;;;;5024190;28;20052;-81
2022/11/26 10:31:43;;;;;;;8.10;2.20;;;;;;;;;;5025943;28;20018;-82
2022/11/26 10:34:12;;;;;;;8.85;3.15;;;;;;;;;;5035406;28;20025;-81
2022/11/26 10:36:40;;;;;;;6.55;2.53;;;;;;;;;;5055455;28;20013;-83
2022/11/26 10:39:06;;;;;;;6.80;2.63;;;;;;;;;;5055998;28;20040;-82
2022/11/26 10:41:36;;;;;;;9.43;3.13;;;;;;;;;;5039580;28;20566;-82
2022/11/26 10:44:21;;;;;;;13.57;3.65;;;;;;;;;;5056039;28;20025;-82
2022/11/26 10:46:50;;;;;;;12.68;3.42;;;;;;;;;;5032780;28;20043;-81
2022/11/26 10:49:22;;;;;;;9.50;3.40;;;;;;;;;;5056425;28;20036;-83
2022/11/26 10:51:48;;;;;;;;;;;;;;;;;;5052589;28;20469;-83
2022/11/26 10:54:23;;;;;;;10.40;3.03;;;;;;;;;;5055599;28;19913;-82
2022/11/26 10:56:52;;;;;;;8.23;3.25;;;;;;;;;;5056224;28;20022;-84
2022/11/26 10:59:50;;;;;;;15.00;4.45;;;;;;;;;;5055428;28;20049;-78
2022/11/26 11:02:19;;;;;;;10.73;4.95;;;;;;;;;;4998673;28;20120;-80
2022/11/26 11:04:47;;;;;;;11.65;4.78;;;;;;;;;;5046086;28;20025;-80
2022/11/26 11:07:32;;;;;;;12.68;5.22;;;;;;;;;;5028834;28;20026;-82
2022/11/26 11:10:04;;;;;;;13.63;6.38;;;;;;;;;;5041005;28;20080;-81
2022/11/26 11:12:31;;;;;;;16.63;5.78;;;;;;;;;;5041294;28;20030;-80
2022/11/26 11:15:12;;;;;;;8.65;5.72;;;;;;;;;;5039073;28;20142;-81
2022/11/26 11:17:39;;;;;;;11.95;6.03;;;;;;;;;;5039306;28;20083;-81
2022/11/26 11:20:15;;;;;;;13.75;6.43;;;;;;;;;;5021684;28;20036;-82
2022/11/26 11:22:45;;;;;;;10.77;5.50;;;;;;;;;;5043585;28;20030;-81
2022/11/26 11:25:21;;;;;;;15.82;6.50;;;;;;;;;;5022202;28;20033;-79
2022/11/26 11:27:48;;;;;;;14.23;6.82;;;;;;;;;;5021369;28;20032;-80
2022/11/26 11:30:28;;;;;;;15.30;5.93;;;;;;;;;;5050649;28;20024;-83
2022/11/26 11:32:56;;;;;;;10.57;5.30;;;;;;;;;;5069157;28;20025;-82
2022/11/26 11:35:29;;;;;;;7.35;5.18;;;;;;;;;;5049876;28;20052;-82
2022/11/26 11:37:56;;;;;;;9.85;4.85;;;;;;;;;;5021569;28;20037;-81
2022/11/26 11:40:26;;;;;;;17.23;6.07;;;;;;;;;;5040795;28;20025;-81
2022/11/26 11:42:54;;;;;;;14.15;5.40;;;;;;;;;;5022828;28;20518;-81
2022/11/26 11:45:39;;;;;;;12.02;4.90;;;;;;;;;;5041183;28;20030;-82
2022/11/26 11:48:14;;;;;;;13.88;5.57;;;;;;;;;;5041759;28;20057;-80
2022/11/26 11:50:47;;;;;;;9.70;4.40;;;;;;;;;;5041592;28;20025;-79
2022/11/26 11:53:32;;;;;;;14.10;5.22;;;;;;;;;;5042036;28;20014;-81
2022/11/26 11:56:15;;;;;;;21.50;4.68;;;;;;;;;;5026795;28;20030;-83
2022/11/26 11:58:57;;;;;;;10.25;4.65;;;;;;;;;;5052218;28;20042;-82
2022/11/26 12:01:36;;;;;;;10.27;5.28;;;;;;;;;;5053329;28;20013;-83
2022/11/26 12:04:02;;;;;;;10.73;4.72;;;;;;;;;;5058776;28;20013;-81
2022/11/26 12:06:46;;;;;;;10.75;4.72;;;;;;;;;;5040371;28;20037;-81
2022/11/26 12:09:21;;;;;;;15.68;5.03;;;;;;;;;;5055321;28;20030;-81
2022/11/26 12:11:54;;;;;;;8.20;4.47;;;;;;;;;;5041522;28;20079;-80
2022/11/26 12:14:32;;;;;;;10.93;4.53;;;;;;;;;;5022548;28;20029;-80
2022/11/26 12:17:01;;;;;;;10.75;4.95;;;;;;;;;;5040751;28;20036;-81
2022/11/26 12:19:32;;;;;;;7.80;4.45;;;;;;;;;;5023035;28;20043;-80
2022/11/26 12:22:03;;;;;;;8.23;3.77;;;;;;;;;;5024180;28;20028;-81
2022/11/26 12:24:35;;;;;;;8.65;4.20;;;;;;;;;;5042128;28;20287;-80
2022/11/26 12:27:04;;;;;;;14.80;5.03;;;;;;;;;;5040439;28;20040;-80
2022/11/26 12:29:35;;;;;;;13.70;5.90;;;;;;;;;;5043309;28;20024;-81
2022/11/26 12:32:04;;;;;;;14.95;4.85;;;;;;;;;;5034496;28;20104;-80
2022/11/26 12:34:33;;;;;;;14.73;5.10;;;;;;;;;;5061905;28;20032;-80
2022/11/26 12:37:02;;;;;;;10.20;4.85;;;;;;;;;;5051434;28;20081;-82
2022/11/26 12:39:36;;;;;;;13.65;4.90;;;;;;;;;;5041255;28;20040;-82
2022/11/26 12:42:04;;;;;;;9.82;4.47;;;;;;;;;;5042411;28;20379;-81
2022/11/26 12:44:33;;;;;;;10.38;4.55;;;;;;;;;;5045639;28;20025;-82
2022/11/26 12:46:59;;;;;;;15.05;4.82;;;;;;;;;;5045422;28;20022;-81
2022/11/26 12:49:54;;;;;;;7.72;4.45;;;;;;;;;;5048860;28;20022;-80
2022/11/26 12:52:20;;;;;;;9.57;3.60;;;;;;;;;;5020877;28;20102;-82
2022/11/26 12:54:53;;;;;;;10.05;4.53;;;;;;;;;;5023024;28;20025;-80
2022/11/26 12:57:34;;;;;;;9.90;4.10;;;;;;;;;;5039383;28;20478;-81
2022/11/26 13:00:11;;;;;;;6.07;3.45;;;;;;;;;;5046625;28;20029;-80
2022/11/26 13:02:40;;;;;;;9.70;3.63;;;;;;;;;;5045232;28;20025;-80
2022/11/26 13:05:06;;;;;;;13.55;3.40;;;;;;;;;;5060143;28;20032;-80
2022/11/26 13:07:43;;;;;;;10.35;4.00;;;;;;;;;;5058779;28;20086;-81
2022/11/26 13:10:28;;;;;;;14.52;4.63;;;;;;;;;;5061800;28;20029;-81
2022/11/26 13:13:23;;;;;;;8.00;3.88;;;;;;;;;;5051040;28;20075;-82
2022/11/26 13:16:08;;;;;;;8.85;3.83;;;;;;;;;;5028730;28;20049;-81
2022/11/26 13:18:36;;;;;;;11.43;3.85;;;;;;;;;;5050707;28;20034;-80
2022/11/26 13:21:08;;;;;;;8.93;3.95;;;;;;;;;;5045409;28;20064;-81
2022/11/26 13:23:53;;;;;;;9.15;3.83;;;;;;;;;;5041187;28;20029;-80
2022/11/26 13:26:34;;;;;;;8.70;3.40;;;;;;;;;;5041282;28;20127;-81
2022/11/26 13:29:13;;;;;;;12.68;3.92;;;;;;;;;;5029785;28;20045;-81
2022/11/26 13:31:39;;;;;;;6.78;3.35;;;;;;;;;;5048875;28;20018;-82
2022/11/26 13:34:21;;;;;;;9.43;4.20;;;;;;;;;;5028464;28;20127;-80
2022/11/26 13:36:54;;;;;;;8.30;3.60;;;;;;;;;;5031223;28;20123;-81
2022/11/26 13:39:39;;;;;;;13.27;4.00;;;;;;;;;;5040454;28;20056;-81
2022/11/26 13:42:28;;;;;;;13.02;4.60;;;;;;;;;;5024889;28;20100;-81
2022/11/26 13:45:03;;;;;;;10.10;3.70;;;;;;;;;;5041309;28;20041;-80
2022/11/26 13:47:40;;;;;;;11.98;4.57;;;;;;;;;;5041007;28;20040;-82
2022/11/26 13:50:13;;;;;;;11.02;4.40;;;;;;;;;;5021101;28;20033;-81
2022/11/26 13:52:43;;;;;;;11.50;4.45;;;;;;;;;;5039380;28;20573;-80
2022/11/26 13:55:30;;;;;;;10.35;4.28;;;;;;;;;;5038899;28;20077;-82
2022/11/26 13:57:59;;;;;;;12.35;4.95;;;;;;;;;;5021364;28;20034;-82
2022/11/26 14:00:26;;;;;;;10.57;3.65;;;;;;;;;;5030789;28;20037;-83
2022/11/26 14:02:52;;;;;;;9.13;3.53;;;;;;;;;;5042027;28;20014;-83
2022/11/26 14:05:18;;;;;;;10.63;4.00;;;;;;;;;;5040998;28;20362;-82
2022/11/26 14:07:45;;;;;;;8.15;3.80;;;;;;;;;;5024187;28;20026;-80
2022/11/26 14:10:29;;;;;;;7.45;2.90;;;;;;;;;;5042849;28;20025;-82
2022/11/26 14:13:01;;;;;;;7.43;3.30;;;;;;;;;;5022532;28;20029;-81
2022/11/26 14:15:40;;;;;;;7.28;3.28;;;;;;;;;;5041315;28;20076;-81
2022/11/26 14:18:07;;;;;;;7.90;3.47;;;;;;;;;;5021235;28;20041;-82
2022/11/26 14:20:52;;;;;;;7.35;3.00;;;;;;;;;;5041961;28;20025;-81
2022/11/26 14:23:34;;;;;;;6.18;2.58;;;;;;;;;;5040486;28;20030;-82
2022/11/26 14:26:00;;;;;;;7.57;3.15;;;;;;;;;;5039255;28;20083;-83
2022/11/26 14:28:26;;;;;;;8.10;3.53;;;;;;;;;;5038698;28;20032;-80
2022/11/26 14:30:52;;;;;;;4.05;2.20;;;;;;;;;;5044201;28;20024;-80
2022/11/26 14:33:23;;;;;;;7.30;2.55;;;;;;;;;;5022609;28;20336;-81
2022/11/26 14:35:56;;;;;;;7.95;2.95;;;;;;;;;;5023030;28;20072;-81
2022/11/26 14:38:26;;;;;;;6.63;3.38;;;;;;;;;;5038934;28;20068;-80
2022/11/26 14:40:59;;;;;;;6.38;3.42;;;;;;;;;;5021104;28;20057;-81
2022/11/26 14:43:25;;;;;;;11.27;3.72;;;;;;;;;;5022332;28;20021;-80
2022/11/26 14:46:01;;;;;;;9.23;3.05;;;;;;;;;;5038942;28;20021;-81
2022/11/26 14:48:28;;;;;;;9.60;3.65;;;;;;;;;;5041786;28;20026;-82
2022/11/26 14:50:55;;;;;;;10.98;3.70;;;;;;;;;;5043758;28;20028;-81
2022/11/26 14:53:23;;;;;;;8.68;3.17;;;;;;;;;;5041107;28;20421;-82
2022/11/26 14:55:49;;;;;;;6.25;3.20;;;;;;;;;;5043348;28;20060;-80
2022/11/26 14:58:18;;;;;;;9.73;3.47;;;;;;;;;;5042765;28;20065;-81
2022/11/26 15:00:44;;;;;;;4.30;2.85;;;;;;;;;;5053434;28;20021;-81